Time,TemperatureF,DewpointF,PressureIn,WindDirection,WindDirectionDegrees,WindSpeedMPH,WindSpeedGustMPH,Humidity,HourlyPrecipIn,Conditions,Clouds,dailyrainin,SoftwareType,DateUTC
2013-03-11 00:04:00,57.1,52.0,29.71,NNW,333,0.0,0.0,82,0.00,,,0.00,weatherlink.com 1.10,2013-03-10 22:04:00,
2013-03-11 00:19:00,56.4,52.0,29.71,SW,217,0.0,3.0,85,0.00,,,0.00,weatherlink.com 1.10,2013-03-10 22:19:00,
2013-03-11 00:34:00,56.3,52.0,29.71,SW,217,0.0,0.0,86,0.00,,,0.00,weatherlink.com 1.10,2013-03-10 22:34:00,
2013-03-11 00:49:00,56.5,52.0,29.71,SW,217,0.0,1.0,85,0.00,,,0.00,weatherlink.com 1.10,2013-03-10 22:49:00,
2013-03-11 01:04:00,56.5,52.0,29.70,SW,217,0.0,1.0,84,0.00,,,0.00,weatherlink.com 1.10,2013-03-10 23:04:00,
2013-03-11 01:19:00,56.9,52.0,29.70,WSW,240,0.0,2.0,82,0.00,,,0.00,weatherlink.com 1.10,2013-03-10 23:19:00,
2013-03-11 01:34:00,56.4,51.0,29.70,WSW,240,0.0,0.0,83,0.00,,,0.00,weatherlink.com 1.10,2013-03-10 23:34:00,
2013-03-11 01:49:00,55.4,51.0,29.69,South,181,0.0,1.0,86,0.00,,,0.00,weatherlink.com 1.10,2013-03-10 23:49:00,
2013-03-11 02:04:00,55.5,51.0,29.69,South,181,0.0,0.0,86,0.00,,,0.00,weatherlink.com 1.10,2013-03-11 00:04:00,
2013-03-11 02:19:00,55.6,51.0,29.68,ENE,58,1.0,3.0,85,0.00,,,0.00,weatherlink.com 1.10,2013-03-11 00:19:00,
2013-03-11 02:34:00,56.0,51.0,29.67,ENE,71,0.0,2.0,84,0.00,,,0.00,weatherlink.com 1.10,2013-03-11 00:34:00,
2013-03-11 02:49:00,55.5,51.0,29.67,ENE,57,0.0,2.0,85,0.00,,,0.00,weatherlink.com 1.10,2013-03-11 00:49:00,
2013-03-11 03:04:00,55.3,51.0,29.67,ENE,57,0.0,1.0,85,0.00,,,0.00,weatherlink.com 1.10,2013-03-11 01:04:00,
2013-03-11 03:19:00,55.2,51.0,29.66,ENE,57,0.0,2.0,85,0.00,,,0.00,weatherlink.com 1.10,2013-03-11 01:19:00,
2013-03-11 03:34:00,55.1,51.0,29.64,ENE,57,1.0,1.0,86,0.00,,,0.00,weatherlink.com 1.10,2013-03-11 01:34:00,
2013-03-11 03:49:00,55.2,51.0,29.64,NE,54,0.0,2.0,85,0.00,,,0.00,weatherlink.com 1.10,2013-03-11 01:49:00,
2013-03-11 04:04:00,55.0,51.0,29.63,NE,54,0.0,0.0,85,0.00,,,0.00,weatherlink.com 1.10,2013-03-11 02:04:00,
2013-03-11 04:19:00,54.9,51.0,29.64,NE,36,0.0,1.0,86,0.00,,,0.00,weatherlink.com 1.10,2013-03-11 02:19:00,
2013-03-11 04:34:00,54.6,51.0,29.64,NE,56,0.0,1.0,87,0.00,,,0.00,weatherlink.com 1.10,2013-03-11 02:34:00,
2013-03-11 04:49:00,54.7,51.0,29.63,NE,55,1.0,3.0,86,0.00,,,0.00,weatherlink.com 1.10,2013-03-11 02:49:00,
2013-03-11 05:05:00,54.7,51.0,29.62,NE,55,1.0,1.0,86,0.00,,,0.00,weatherlink.com 1.10,2013-03-11 03:05:00,
2013-03-11 05:20:00,54.4,51.0,29.61,NE,55,0.0,2.0,87,0.00,,,0.00,weatherlink.com 1.10,2013-03-11 03:20:00,
2013-03-11 05:35:00,54.2,51.0,29.61,NE,55,0.0,2.0,87,0.00,,,0.00,weatherlink.com 1.10,2013-03-11 03:35:00,
2013-03-11 05:50:00,54.0,51.0,29.61,NE,55,0.0,0.0,88,0.00,,,0.00,weatherlink.com 1.10,2013-03-11 03:50:00,
2013-03-11 06:05:00,54.6,51.0,29.61,ENE,58,2.0,3.0,87,0.00,,,0.00,weatherlink.com 1.10,2013-03-11 04:05:00,
2013-03-11 06:20:00,54.8,51.0,29.60,NE,53,0.0,2.0,87,0.00,,,0.00,weatherlink.com 1.10,2013-03-11 04:20:00,
2013-03-11 06:35:00,55.0,51.0,29.61,NE,54,0.0,3.0,86,0.00,,,0.00,weatherlink.com 1.10,2013-03-11 04:35:00,
2013-03-11 06:50:00,55.0,51.0,29.61,NE,51,0.0,2.0,86,0.00,,,0.00,weatherlink.com 1.10,2013-03-11 04:50:00,
2013-03-11 07:05:00,55.1,51.0,29.61,NE,50,0.0,3.0,86,0.00,,,0.00,weatherlink.com 1.10,2013-03-11 05:05:00,
2013-03-11 07:20:00,54.8,51.0,29.60,NE,50,0.0,0.0,87,0.00,,,0.00,weatherlink.com 1.10,2013-03-11 05:20:00,
2013-03-11 07:35:00,55.6,52.0,29.61,NE,50,0.0,1.0,87,0.00,,,0.00,weatherlink.com 1.10,2013-03-11 05:35:00,
2013-03-11 07:50:00,56.2,52.0,29.62,NE,44,0.0,2.0,86,0.00,,,0.00,weatherlink.com 1.10,2013-03-11 05:50:00,
2013-03-11 08:05:00,56.1,52.0,29.63,NE,44,0.0,0.0,86,0.00,,,0.00,weatherlink.com 1.10,2013-03-11 06:05:00,
2013-03-11 08:20:00,58.2,53.0,29.62,NE,44,0.0,0.0,82,0.00,,,0.00,weatherlink.com 1.10,2013-03-11 06:20:00,
2013-03-11 08:35:00,59.7,54.0,29.62,NE,44,0.0,0.0,80,0.00,,,0.00,weatherlink.com 1.10,2013-03-11 06:35:00,
2013-03-11 08:50:00,59.8,54.0,29.63,NE,44,0.0,0.0,81,0.00,,,0.00,weatherlink.com 1.10,2013-03-11 06:50:00,
2013-03-11 09:05:00,59.7,54.0,29.63,NE,44,0.0,0.0,81,0.00,,,0.00,weatherlink.com 1.10,2013-03-11 07:05:00,
2013-03-11 09:20:00,59.8,54.0,29.63,NE,44,0.0,0.0,81,0.00,,,0.00,weatherlink.com 1.10,2013-03-11 07:20:00,
2013-03-11 09:35:00,60.3,54.0,29.63,ENE,75,1.0,2.0,80,0.00,,,0.00,weatherlink.com 1.10,2013-03-11 07:35:00,
2013-03-11 09:50:00,61.4,55.0,29.62,South,177,2.0,3.0,80,0.00,,,0.00,weatherlink.com 1.10,2013-03-11 07:50:00,
2013-03-11 10:05:00,62.4,55.0,29.61,SW,224,0.0,3.0,77,0.00,,,0.00,weatherlink.com 1.10,2013-03-11 08:05:00,
2013-03-11 10:20:00,63.0,55.0,29.61,SSE,165,0.0,5.0,76,0.00,,,0.00,weatherlink.com 1.10,2013-03-11 08:20:00,
2013-03-11 10:35:00,63.9,56.0,29.61,SSW,207,3.0,5.0,76,0.00,,,0.00,weatherlink.com 1.10,2013-03-11 08:35:00,
2013-03-11 10:50:00,63.8,56.0,29.62,SSW,207,1.0,8.0,76,0.00,,,0.00,weatherlink.com 1.10,2013-03-11 08:50:00,
2013-03-11 11:05:00,62.9,56.0,29.63,SSW,207,2.0,7.0,77,0.00,,,0.00,weatherlink.com 1.10,2013-03-11 09:05:00,
2013-03-11 11:20:00,62.7,55.0,29.62,SSW,203,4.0,9.0,77,0.00,,,0.00,weatherlink.com 1.10,2013-03-11 09:20:00,
2013-03-11 11:35:00,62.4,56.0,29.62,WSW,243,6.0,9.0,79,0.00,,,0.00,weatherlink.com 1.10,2013-03-11 09:35:00,
2013-03-11 11:50:00,63.0,56.0,29.62,SSW,213,0.0,8.0,79,0.00,,,0.00,weatherlink.com 1.10,2013-03-11 09:50:00,
2013-03-11 12:05:00,63.2,56.0,29.62,WSW,238,2.0,9.0,78,0.00,,,0.00,weatherlink.com 1.10,2013-03-11 10:05:00,
2013-03-11 12:20:00,63.1,57.0,29.61,SW,225,1.0,10.0,80,0.00,,,0.00,weatherlink.com 1.10,2013-03-11 10:20:00,
2013-03-11 12:35:00,64.5,57.0,29.61,SW,229,0.0,6.0,77,0.00,,,0.00,weatherlink.com 1.10,2013-03-11 10:35:00,
2013-03-11 12:50:00,64.0,57.0,29.61,South,182,4.0,7.0,78,0.00,,,0.00,weatherlink.com 1.10,2013-03-11 10:50:00,
2013-03-11 13:05:00,65.2,57.0,29.61,South,169,3.0,7.0,74,0.00,,,0.00,weatherlink.com 1.10,2013-03-11 11:05:00,
2013-03-11 13:20:00,65.9,55.0,29.60,SW,234,3.0,6.0,69,0.00,,,0.00,weatherlink.com 1.10,2013-03-11 11:20:00,
2013-03-11 13:35:00,65.9,55.0,29.60,South,171,0.0,4.0,67,0.00,,,0.00,weatherlink.com 1.10,2013-03-11 11:35:00,
2013-03-11 13:50:00,66.5,54.0,29.59,WSW,242,0.0,5.0,64,0.00,,,0.00,weatherlink.com 1.10,2013-03-11 11:50:00,
2013-03-11 14:05:00,65.7,54.0,29.59,SSW,207,1.0,6.0,66,0.00,,,0.00,weatherlink.com 1.10,2013-03-11 12:05:00,
2013-03-11 14:20:00,66.3,54.0,29.58,South,180,1.0,5.0,65,0.00,,,0.00,weatherlink.com 1.10,2013-03-11 12:20:00,
2013-03-11 14:35:00,65.9,54.0,29.58,SW,230,0.0,7.0,66,0.00,,,0.00,weatherlink.com 1.10,2013-03-11 12:35:00,
2013-03-11 14:50:00,66.2,54.0,29.58,South,175,0.0,4.0,65,0.00,,,0.00,weatherlink.com 1.10,2013-03-11 12:50:00,
2013-03-11 15:05:00,66.9,55.0,29.58,WSW,252,2.0,7.0,66,0.00,,,0.00,weatherlink.com 1.10,2013-03-11 13:05:00,
2013-03-11 15:20:00,65.9,54.0,29.58,SSW,210,3.0,6.0,66,0.00,,,0.00,weatherlink.com 1.10,2013-03-11 13:20:00,
2013-03-11 15:35:00,65.7,55.0,29.58,SW,215,7.0,10.0,68,0.00,,,0.00,weatherlink.com 1.10,2013-03-11 13:35:00,
2013-03-11 15:50:00,65.4,54.0,29.58,SW,217,0.0,6.0,67,0.00,,,0.00,weatherlink.com 1.10,2013-03-11 13:50:00,
2013-03-11 16:05:00,65.0,54.0,29.58,WSW,242,4.0,8.0,67,0.00,,,0.00,weatherlink.com 1.10,2013-03-11 14:05:00,
2013-03-11 16:20:00,64.7,55.0,29.59,SW,217,5.0,7.0,70,0.00,,,0.00,weatherlink.com 1.10,2013-03-11 14:20:00,
2013-03-11 16:35:00,63.8,55.0,29.58,SSW,212,3.0,7.0,72,0.00,,,0.00,weatherlink.com 1.10,2013-03-11 14:35:00,
2013-03-11 16:50:00,63.5,53.0,29.58,SW,222,3.0,7.0,69,0.00,,,0.00,weatherlink.com 1.10,2013-03-11 14:50:00,
2013-03-11 17:05:00,63.1,55.0,29.58,SSW,211,3.0,6.0,74,0.00,,,0.00,weatherlink.com 1.10,2013-03-11 15:05:00,
2013-03-11 17:20:00,62.7,56.0,29.58,SSW,211,5.0,8.0,79,0.00,,,0.00,weatherlink.com 1.10,2013-03-11 15:20:00,
2013-03-11 17:35:00,62.4,57.0,29.59,SW,214,2.0,8.0,82,0.00,,,0.00,weatherlink.com 1.10,2013-03-11 15:35:00,
2013-03-11 17:50:00,62.4,57.0,29.59,SSW,204,2.0,7.0,82,0.00,,,0.00,weatherlink.com 1.10,2013-03-11 15:50:00,
2013-03-11 18:05:00,62.5,54.0,29.59,SW,219,3.0,8.0,73,0.00,,,0.00,weatherlink.com 1.10,2013-03-11 16:05:00,
2013-03-11 18:20:00,62.2,56.0,29.60,SSW,205,3.0,5.0,80,0.00,,,0.00,weatherlink.com 1.10,2013-03-11 16:20:00,
2013-03-11 18:35:00,61.5,56.0,29.61,SW,215,0.0,3.0,81,0.00,,,0.00,weatherlink.com 1.10,2013-03-11 16:35:00,
2013-03-11 18:50:00,61.3,55.0,29.61,SW,215,0.0,0.0,81,0.00,,,0.00,weatherlink.com 1.10,2013-03-11 16:50:00,
2013-03-11 19:05:00,60.9,55.0,29.61,SW,215,0.0,2.0,81,0.00,,,0.00,weatherlink.com 1.10,2013-03-11 17:05:00,
2013-03-11 19:20:00,61.2,51.0,29.61,SE,130,0.0,5.0,69,0.00,,,0.00,weatherlink.com 1.10,2013-03-11 17:20:00,
2013-03-11 19:36:00,62.0,52.0,29.62,SSW,207,0.0,1.0,70,0.00,,,0.00,weatherlink.com 1.10,2013-03-11 17:36:00,
2013-03-11 19:51:00,61.8,51.0,29.62,WNW,291,0.0,3.0,67,0.00,,,0.00,weatherlink.com 1.10,2013-03-11 17:51:00,
2013-03-11 20:06:00,62.3,50.0,29.62,SW,232,1.0,6.0,65,0.00,,,0.00,weatherlink.com 1.10,2013-03-11 18:06:00,
2013-03-11 20:21:00,62.2,51.0,29.63,NW,316,0.0,4.0,66,0.00,,,0.00,weatherlink.com 1.10,2013-03-11 18:21:00,
2013-03-11 20:36:00,61.8,51.0,29.64,NW,304,2.0,4.0,68,0.00,,,0.00,weatherlink.com 1.10,2013-03-11 18:36:00,
2013-03-11 20:51:00,61.6,51.0,29.64,ESE,112,0.0,5.0,68,0.00,,,0.00,weatherlink.com 1.10,2013-03-11 18:51:00,
2013-03-11 21:06:00,61.3,48.0,29.64,West,272,3.0,10.0,63,0.00,,,0.00,weatherlink.com 1.10,2013-03-11 19:06:00,
2013-03-11 21:21:00,61.6,46.0,29.65,NNE,27,3.0,10.0,57,0.00,,,0.00,weatherlink.com 1.10,2013-03-11 19:21:00,
2013-03-11 21:36:00,61.0,47.0,29.64,NW,318,3.0,13.0,60,0.00,,,0.00,weatherlink.com 1.10,2013-03-11 19:36:00,
2013-03-11 21:51:00,60.5,47.0,29.64,NW,314,1.0,9.0,61,0.00,,,0.00,weatherlink.com 1.10,2013-03-11 19:51:00,
2013-03-11 22:06:00,60.2,47.0,29.64,WNW,284,1.0,15.0,63,0.00,,,0.00,weatherlink.com 1.10,2013-03-11 20:06:00,
2013-03-11 22:21:00,59.9,48.0,29.64,SSE,167,1.0,8.0,64,0.00,,,0.00,weatherlink.com 1.10,2013-03-11 20:21:00,
2013-03-11 22:36:00,59.6,48.0,29.65,NW,320,0.0,8.0,65,0.00,,,0.00,weatherlink.com 1.10,2013-03-11 20:36:00,
2013-03-11 22:51:00,59.6,48.0,29.65,NW,305,0.0,6.0,65,0.00,,,0.00,weatherlink.com 1.10,2013-03-11 20:51:00,
2013-03-11 23:06:00,59.3,47.0,29.65,NW,312,0.0,5.0,65,0.00,,,0.00,weatherlink.com 1.10,2013-03-11 21:06:00,
2013-03-11 23:21:00,59.2,47.0,29.66,NW,312,0.0,2.0,65,0.00,,,0.00,weatherlink.com 1.10,2013-03-11 21:21:00,
2013-03-11 23:36:00,59.0,47.0,29.65,NW,319,0.0,4.0,65,0.00,,,0.00,weatherlink.com 1.10,2013-03-11 21:36:00,
2013-03-11 23:51:00,58.9,47.0,29.65,NNW,347,0.0,4.0,65,0.00,,,0.00,weatherlink.com 1.10,2013-03-11 21:51:00,